createdAt,value
2022-11-15T00:02:13.690Z,101036.00
2022-11-15T00:05:03.591Z,101040.97
2022-11-15T00:07:56.384Z,101025.25
2022-11-15T00:10:45.618Z,101046.31
2022-11-15T00:13:34.781Z,101035.78
2022-11-15T00:16:24.212Z,101042.44
2022-11-15T00:19:13.427Z,101034.00
2022-11-15T00:22:02.906Z,101043.59
2022-11-15T00:24:52.222Z,101049.56
2022-11-15T00:27:42.295Z,101042.91
2022-11-15T00:30:31.626Z,101038.94
2022-11-15T00:33:20.860Z,101026.44
2022-11-15T00:36:13.031Z,101034.88
2022-11-15T00:39:02.020Z,101030.13
2022-11-15T00:41:50.706Z,101025.00
2022-11-15T00:44:39.575Z,101026.56
2022-11-15T00:47:28.046Z,101036.84
2022-11-15T00:50:17.100Z,101032.28
2022-11-15T00:53:05.752Z,101030.94
2022-11-15T00:55:54.940Z,101024.72
2022-11-15T00:58:44.021Z,101028.50
2022-11-15T01:01:33.209Z,101024.81
2022-11-15T01:04:22.481Z,101023.34
2022-11-15T01:07:11.962Z,101008.13
2022-11-15T01:10:00.801Z,101021.94
2022-11-15T01:12:50.121Z,101019.47
2022-11-15T01:15:43.197Z,101013.38
2022-11-15T01:18:31.927Z,101020.75
2022-11-15T01:21:22.592Z,101019.03
2022-11-15T01:24:13.857Z,101006.56
2022-11-15T01:27:02.964Z,101015.09
2022-11-15T01:29:51.836Z,101021.50
2022-11-15T01:32:41.342Z,101003.72
2022-11-15T01:35:30.385Z,101019.06
2022-11-15T01:38:19.378Z,101019.22
2022-11-15T01:41:15.077Z,101028.16
2022-11-15T01:44:48.744Z,101029.22
2022-11-15T01:47:43.801Z,101027.47
2022-11-15T01:50:34.240Z,101026.31
2022-11-15T01:53:24.837Z,101022.22
2022-11-15T01:56:17.863Z,101020.41
2022-11-15T01:59:09.432Z,101020.66
2022-11-15T02:01:58.368Z,101022.47
2022-11-15T02:04:49.405Z,101028.97
2022-11-15T02:07:39.705Z,101015.47
2022-11-15T02:10:29.129Z,101016.00
2022-11-15T02:13:18.888Z,101015.22
2022-11-15T02:16:46.252Z,101013.56
2022-11-15T02:19:52.625Z,101009.25
2022-11-15T02:23:01.047Z,100990.91
2022-11-15T02:26:01.879Z,101003.25
2022-11-15T02:29:11.228Z,101000.38
2022-11-15T02:32:18.222Z,100995.47
2022-11-15T02:35:31.846Z,100997.56
2022-11-15T02:38:52.603Z,100988.25
2022-11-15T02:41:56.885Z,100989.78
2022-11-15T02:44:49.196Z,100980.59
2022-11-15T02:47:44.842Z,100974.69
2022-11-15T02:50:35.497Z,100981.81
2022-11-15T02:53:29.655Z,100984.78
2022-11-15T02:56:19.329Z,100976.25
2022-11-15T02:59:32.779Z,100984.66
2022-11-15T03:03:00.672Z,100979.53
2022-11-15T03:06:08.231Z,100975.34
2022-11-15T03:09:48.958Z,100977.81
2022-11-15T03:12:47.322Z,100969.44
2022-11-15T03:15:43.671Z,100969.22
2022-11-15T03:18:39.012Z,100971.03
2022-11-15T03:21:28.492Z,100974.47
2022-11-15T03:24:20.877Z,100940.81
2022-11-15T03:27:16.042Z,100966.38
2022-11-15T03:30:08.776Z,100974.00
2022-11-15T03:33:01.640Z,100969.28
2022-11-15T03:35:51.283Z,100965.75
2022-11-15T03:38:42.089Z,100968.22
2022-11-15T03:42:07.142Z,100973.16
2022-11-15T03:45:06.156Z,100954.41
2022-11-15T03:48:19.343Z,100953.53
2022-11-15T03:51:08.631Z,100973.38
2022-11-15T03:53:57.919Z,100972.31
2022-11-15T03:56:47.067Z,100962.91
2022-11-15T03:59:35.948Z,100952.59
2022-11-15T04:02:24.690Z,100945.47
2022-11-15T04:05:14.105Z,100948.84
2022-11-15T04:08:03.459Z,100957.16
2022-11-15T04:10:53.102Z,100949.47
2022-11-15T04:13:41.858Z,100953.84
2022-11-15T04:16:30.933Z,100962.53
2022-11-15T04:19:38.261Z,100954.53
2022-11-15T04:22:45.055Z,100946.28
2022-11-15T04:25:33.812Z,100946.59
2022-11-15T04:28:23.369Z,100933.28
2022-11-15T04:31:12.454Z,100943.50
2022-11-15T04:34:01.628Z,100940.44
2022-11-15T04:37:08.148Z,100928.72
2022-11-15T04:39:56.996Z,100939.59
2022-11-15T04:42:46.025Z,100933.75
2022-11-15T04:45:35.467Z,100934.88
2022-11-15T04:48:24.638Z,100937.66
2022-11-15T04:51:14.057Z,100936.69
2022-11-15T04:54:03.211Z,100932.06
2022-11-15T04:56:52.701Z,100930.41
2022-11-15T04:59:41.389Z,100934.69
2022-11-15T05:02:50.027Z,100940.25
2022-11-15T05:05:39.278Z,100936.81
2022-11-15T05:08:29.033Z,100931.38
2022-11-15T05:11:19.290Z,100937.75
2022-11-15T05:14:08.274Z,100948.00
2022-11-15T05:16:57.398Z,100939.47
2022-11-15T05:19:47.152Z,100941.78
2022-11-15T05:22:35.822Z,100947.19
2022-11-15T05:25:25.360Z,100931.88
2022-11-15T05:28:14.904Z,100943.91
2022-11-15T05:31:13.206Z,100962.00
2022-11-15T05:34:07.986Z,100951.84
2022-11-15T05:36:57.254Z,100960.56
2022-11-15T05:39:46.338Z,100956.41
2022-11-15T05:42:35.112Z,100956.44
2022-11-15T05:45:26.940Z,100963.19
2022-11-15T05:48:16.876Z,100972.94
2022-11-15T05:51:06.878Z,100976.41
2022-11-15T05:53:56.073Z,100964.34
2022-11-15T05:56:44.871Z,100976.28
2022-11-15T05:59:35.285Z,100966.25
2022-11-15T06:02:24.374Z,100978.47
2022-11-15T06:05:13.155Z,100973.53
2022-11-15T06:08:02.244Z,100967.72
2022-11-15T06:10:51.441Z,100953.72
2022-11-15T06:13:41.169Z,100980.56
2022-11-15T06:16:30.111Z,100973.81
2022-11-15T06:19:19.239Z,100968.78
2022-11-15T06:22:08.191Z,100980.09
2022-11-15T06:25:00.184Z,100973.94
2022-11-15T06:28:01.413Z,100984.34
2022-11-15T06:30:53.243Z,100986.66
2022-11-15T06:33:42.453Z,100976.84
2022-11-15T06:36:31.667Z,100976.38
2022-11-15T06:39:20.636Z,100983.78
2022-11-15T06:42:11.102Z,100980.44
2022-11-15T06:44:59.730Z,100984.66
2022-11-15T06:47:49.631Z,100982.44
2022-11-15T06:50:38.734Z,100976.84
2022-11-15T06:53:29.006Z,100980.75
2022-11-15T06:56:18.489Z,100988.75
2022-11-15T06:59:08.330Z,100994.00
2022-11-15T07:01:57.449Z,100998.31
2022-11-15T07:04:46.680Z,100996.66
2022-11-15T07:07:36.125Z,100998.56
2022-11-15T07:10:27.043Z,101006.78
2022-11-15T07:13:16.074Z,101006.50
2022-11-15T07:16:08.014Z,101012.22
2022-11-15T07:18:57.172Z,101022.00
2022-11-15T07:21:46.859Z,101013.03
2022-11-15T07:24:36.246Z,101013.63
2022-11-15T07:27:25.239Z,101018.84
2022-11-15T07:30:15.757Z,101028.94
2022-11-15T07:33:05.283Z,101033.44
2022-11-15T07:35:54.132Z,101026.88
2022-11-15T07:38:43.216Z,101041.06
2022-11-15T07:41:32.757Z,101039.31
2022-11-15T07:44:21.806Z,101040.38
2022-11-15T07:47:10.821Z,101029.44
2022-11-15T07:50:00.093Z,101036.06
2022-11-15T07:52:49.758Z,101047.47
2022-11-15T07:55:39.374Z,101052.41
2022-11-15T07:58:28.308Z,101056.44
2022-11-15T08:01:17.113Z,101065.81
2022-11-15T08:04:06.445Z,101072.94
2022-11-15T08:06:55.791Z,101074.78
2022-11-15T08:09:45.170Z,101078.56
2022-11-15T08:12:35.131Z,101078.53
2022-11-15T08:15:24.046Z,101077.97
2022-11-15T08:18:16.962Z,101076.25
2022-11-15T08:21:06.368Z,101081.22
2022-11-15T08:23:54.973Z,101088.69
2022-11-15T08:26:44.089Z,101087.41
2022-11-15T08:29:33.219Z,101090.50
2022-11-15T08:32:22.585Z,101097.50
2022-11-15T08:35:11.623Z,101084.84
2022-11-15T08:38:00.188Z,101090.19
2022-11-15T08:40:50.100Z,101099.78
2022-11-15T08:43:39.771Z,101105.44
2022-11-15T08:46:28.843Z,101100.31
2022-11-15T08:49:17.655Z,101103.44
2022-11-15T08:52:06.540Z,101095.44
2022-11-15T08:54:55.813Z,101100.47
2022-11-15T08:57:44.733Z,101103.81
2022-11-15T09:00:33.712Z,101092.72
2022-11-15T09:03:22.534Z,101076.47
2022-11-15T09:06:12.665Z,101089.84
2022-11-15T09:09:03.126Z,101093.50
2022-11-15T09:11:55.741Z,101091.63
2022-11-15T09:14:47.576Z,101090.78
2022-11-15T09:17:36.467Z,101070.19
2022-11-15T09:20:48.601Z,101086.78
2022-11-15T09:24:29.613Z,101063.19
2022-11-15T09:28:13.589Z,101062.06
2022-11-15T09:31:54.579Z,101057.25
2022-11-15T09:35:36.617Z,101076.25
2022-11-15T09:39:18.583Z,101062.94
2022-11-15T09:43:18.665Z,101078.47
2022-11-15T09:47:04.570Z,101086.66
2022-11-15T09:51:09.620Z,101083.34
2022-11-15T09:55:03.696Z,101085.88
2022-11-15T09:58:40.599Z,101070.34
2022-11-15T10:02:35.687Z,101094.31
2022-11-15T10:06:03.662Z,101082.56
2022-11-15T10:09:54.766Z,101079.63
